This is the latest recevied weather packets stored in our database for station/object K3HW. If no packets are shown the sender has not sent any weather packets the latest 1 day(s).
| Time | Temp. | Humidity | Pressure | Rain* | Wind** | Luminosity | Snow |
|---|---|---|---|---|---|---|---|
| 1778093459 | 16.67° C | 85% | 1011 hPa | 0 mm | - | 85 W/m² | - |
| 1778092854 | 16.67° C | 86% | 1011.2 hPa | 0 mm | - | 36 W/m² | - |
| 1778091641 | 16.67° C | 84% | 1011.5 hPa | 0 mm | - | 53 W/m² | - |
| 1778090125 | 16.67° C | 84% | 1011.6 hPa | 0 mm | - | 29 W/m² | - |
| 1778086794 | 16.67° C | 87% | 1011.9 hPa | 0 mm | - | 62 W/m² | - |
| 1778083460 | 16.11° C | 89% | 1012.6 hPa | 1.27 mm | - | 63 W/m² | - |
| 1778081731 | 16.11° C | 87% | 1013 hPa | 4.83 mm | - | 15 W/m² | - |
| 1778080521 | 16.67° C | 85% | 1013.1 hPa | 3.05 mm | - | 27 W/m² | - |
| 1778080218 | 16.67° C | 84% | 1013.1 hPa | 1.27 mm | - | 35 W/m² | - |
| 1778078702 | 16.67° C | 83% | 1012.9 hPa | 1.27 mm | - | 62 W/m² | - |
| 1778077190 | 17.78° C | 75% | 1012.9 hPa | 0 mm | - | 25 W/m² | - |
| 1778076888 | 18.33° C | 74% | 1013 hPa | 0 mm | - | 32 W/m² | - |
| 1778076283 | 18.89° C | 71% | 1013 hPa | 0 mm | - | 32 W/m² | - |
| 1778075677 | 19.44° C | 70% | 1012.6 hPa | 0 mm | - | 44 W/m² | - |
| 1778075373 | 19.44° C | 69% | 1012.6 hPa | 0 mm | - | 78 W/m² | - |
| 1778074160 | 18.89° C | 70% | 1012.9 hPa | 0 mm | - | 89 W/m² | - |
| 1778073251 | 18.89° C | 70% | 1012.8 hPa | 0 mm | - | 48 W/m² | - |
| 1778072644 | 18.89° C | 69% | 1012.8 hPa | 0 mm | - | 42 W/m² | - |
| 1778071435 | 19.44° C | 68% | 1012.9 hPa | 0 mm | - | 37 W/m² | - |
| 1778071133 | 19.44° C | 68% | 1013.1 hPa | 0 mm | - | 49 W/m² | - |
| 1778070831 | 18.89° C | 68% | 1012.9 hPa | 0 mm | - | 73 W/m² | - |
| 1778070225 | 18.89° C | 69% | 1012.9 hPa | 0 mm | - | 21 W/m² | - |
| 1778069620 | 18.89° C | 69% | 1012.8 hPa | 0 mm | - | 29 W/m² | - |
| 1778069317 | 18.89° C | 69% | 1012.8 hPa | 0 mm | - | 37 W/m² | - |
| 1778069015 | 18.89° C | 70% | 1012.9 hPa | 0 mm | - | 50 W/m² | - |
* Rain latest hour (hover to see other rain measurements)
** Current wind speed in m/s (hover to see current wind gust speed)